Time;durP1;ratioP1;P1;durP2;ratioP2;P2;SDS_P1;SDS_P2;PMS_P1;PMS_P2;Temp;Humidity;BMP_temperature;BMP_pressure;BME280_temperature;BME280_humidity;BME280_pressure;Samples;Min_cycle;Max_cycle;Signal;HPM_P1;HPM_P2
2023/10/04 00:00:27;;;;;;;0.17;0.10;;;12.50;99.90;;;;;;4981129;28;20037;-84
2023/10/04 00:02:54;;;;;;;2.45;0.15;;;12.50;99.90;;;;;;4995322;28;20041;-84
2023/10/04 00:05:21;;;;;;;3.15;0.30;;;12.50;99.90;;;;;;4975713;28;20040;-84
2023/10/04 00:07:50;;;;;;;1.20;0.30;;;12.50;99.90;;;;;;4992578;28;20056;-84
2023/10/04 00:10:18;;;;;;;1.15;0.10;;;12.50;99.90;;;;;;4996197;28;20058;-84
2023/10/04 00:12:45;;;;;;;4.80;0.93;;;12.50;99.90;;;;;;4995888;28;20038;-83
2023/10/04 00:15:13;;;;;;;2.47;0.30;;;12.50;99.90;;;;;;4996707;28;20034;-84
2023/10/04 00:17:48;;;;;;;4.78;0.22;;;12.50;99.90;;;;;;5001386;28;20038;-84
2023/10/04 00:20:17;;;;;;;0.20;0.00;;;12.50;99.90;;;;;;4992402;28;20136;-84
2023/10/04 00:22:46;;;;;;;3.75;0.17;;;12.50;99.90;;;;;;4993678;28;20498;-84
2023/10/04 00:25:16;;;;;;;0.65;0.15;;;12.50;99.90;;;;;;4989180;28;20046;-84
2023/10/04 00:27:43;;;;;;;0.30;0.10;;;12.40;99.90;;;;;;4986640;28;20046;-84
2023/10/04 00:30:14;;;;;;;0.77;0.00;;;12.40;99.90;;;;;;4992111;28;20037;-84
2023/10/04 00:32:40;;;;;;;0.50;0.10;;;12.40;99.90;;;;;;4972368;28;20041;-84
2023/10/04 00:35:11;;;;;;;0.40;0.10;;;12.30;99.90;;;;;;4989603;28;20073;-84
2023/10/04 00:37:37;;;;;;;0.65;0.10;;;12.20;99.90;;;;;;4970617;28;20049;-84
2023/10/04 00:40:10;;;;;;;0.17;0.00;;;12.20;99.90;;;;;;4992261;28;20046;-84
2023/10/04 00:42:36;;;;;;;0.00;0.00;;;12.20;99.90;;;;;;4974071;28;20490;-84
2023/10/04 00:45:02;;;;;;;0.20;0.10;;;12.20;99.90;;;;;;4971978;28;20092;-84
2023/10/04 00:47:29;;;;;;;1.17;0.20;;;12.10;99.90;;;;;;4988294;28;20039;-84
2023/10/04 00:49:55;;;;;;;1.27;0.22;;;12.00;99.90;;;;;;4993662;28;20042;-84
2023/10/04 00:52:21;;;;;;;0.22;0.00;;;11.90;99.90;;;;;;4992369;28;20171;-84
2023/10/04 00:54:49;;;;;;;0.73;0.10;;;11.90;99.90;;;;;;4986148;28;20108;-84
2023/10/04 00:57:15;;;;;;;0.63;0.28;;;11.90;99.90;;;;;;4988445;28;20058;-84
2023/10/04 00:59:42;;;;;;;0.85;0.10;;;11.80;99.90;;;;;;4993347;28;20038;-84
2023/10/04 01:02:09;;;;;;;0.93;0.20;;;11.80;99.90;;;;;;4992564;28;20042;-83
2023/10/04 01:04:35;;;;;;;0.20;0.05;;;11.80;99.90;;;;;;4988505;28;20046;-84
2023/10/04 01:07:01;;;;;;;2.83;0.20;;;11.80;99.90;;;;;;4973808;28;20601;-84
2023/10/04 01:09:28;;;;;;;5.47;0.30;;;11.80;99.90;;;;;;4979146;28;20457;-84
2023/10/04 01:11:54;;;;;;;0.75;0.20;;;11.80;99.90;;;;;;4987982;28;20042;-83
2023/10/04 01:14:37;;;;;;;1.52;0.20;;;11.90;99.90;;;;;;4971860;28;20050;-84
2023/10/04 01:17:04;;;;;;;0.20;0.10;;;11.90;99.90;;;;;;4979113;28;20064;-83
2023/10/04 01:19:30;;;;;;;1.20;0.30;;;11.90;99.90;;;;;;4990823;28;20173;-84
2023/10/04 01:21:56;;;;;;;0.82;0.20;;;12.00;99.90;;;;;;4971618;28;20035;-83
2023/10/04 01:24:22;;;;;;;1.77;0.30;;;12.00;99.90;;;;;;4990592;28;20054;-84
2023/10/04 01:26:48;;;;;;;0.45;0.10;;;12.00;99.90;;;;;;4996639;28;20034;-83
2023/10/04 01:29:15;;;;;;;0.43;0.13;;;12.00;99.90;;;;;;4973282;28;20030;-83
2023/10/04 01:31:42;;;;;;;4.47;0.10;;;12.00;99.90;;;;;;4976182;28;20042;-83
2023/10/04 01:34:08;;;;;;;1.20;0.28;;;12.00;99.90;;;;;;4989704;28;20128;-83
2023/10/04 01:36:36;;;;;;;1.52;0.43;;;11.90;99.90;;;;;;4992895;28;20085;-84
2023/10/04 01:39:07;;;;;;;5.72;0.40;;;12.00;99.90;;;;;;5008358;28;20460;-83
2023/10/04 01:41:37;;;;;;;0.47;0.10;;;12.00;99.90;;;;;;4986564;28;20413;-83
2023/10/04 01:44:05;;;;;;;1.20;0.43;;;12.00;99.90;;;;;;4969321;28;20117;-83
2023/10/04 01:46:30;;;;;;;0.08;0.08;;;12.00;99.90;;;;;;4978516;28;20050;-84
2023/10/04 01:48:56;;;;;;;1.38;0.35;;;12.00;99.90;;;;;;4985234;28;20415;-84
2023/10/04 01:51:22;;;;;;;5.15;0.57;;;12.00;99.90;;;;;;4985070;28;20042;-84
2023/10/04 01:53:50;;;;;;;5.07;0.50;;;12.00;99.90;;;;;;4972021;28;20065;-84
2023/10/04 01:56:17;;;;;;;0.20;0.10;;;11.90;99.90;;;;;;4974141;28;20039;-83
2023/10/04 01:58:48;;;;;;;0.80;0.10;;;11.90;99.90;;;;;;4977573;28;20045;-83
2023/10/04 02:01:14;;;;;;;0.20;0.00;;;12.00;99.90;;;;;;4992498;28;20191;-83
2023/10/04 02:03:40;;;;;;;1.63;0.28;;;12.00;99.90;;;;;;4986520;28;20042;-84
2023/10/04 02:06:07;;;;;;;0.43;0.03;;;12.00;99.90;;;;;;4973343;28;20100;-84
2023/10/04 02:08:33;;;;;;;2.88;0.30;;;12.00;99.90;;;;;;4985488;28;20034;-83
2023/10/04 02:10:59;;;;;;;0.13;0.10;;;12.10;99.90;;;;;;4991203;28;20124;-83
2023/10/04 02:13:27;;;;;;;0.47;0.10;;;12.10;99.90;;;;;;4976047;28;20046;-84
2023/10/04 02:15:53;;;;;;;1.20;0.20;;;12.20;99.90;;;;;;4988274;28;20108;-83
2023/10/04 02:18:20;;;;;;;0.47;0.20;;;12.10;99.90;;;;;;4971000;28;20034;-84
2023/10/04 02:20:49;;;;;;;5.57;0.47;;;12.20;99.90;;;;;;4981345;28;20405;-82
2023/10/04 02:23:16;;;;;;;0.20;0.10;;;12.20;99.90;;;;;;4989782;28;20038;-81
2023/10/04 02:25:42;;;;;;;2.15;0.35;;;12.20;99.90;;;;;;4995397;28;20053;-82
2023/10/04 02:28:22;;;;;;;2.58;0.22;;;12.30;99.90;;;;;;4992222;28;20371;-82
2023/10/04 02:30:49;;;;;;;0.85;0.30;;;12.30;99.90;;;;;;4991500;28;20046;-83
2023/10/04 02:33:16;;;;;;;2.10;0.20;;;12.40;99.90;;;;;;4990021;28;20038;-82
2023/10/04 02:35:47;;;;;;;1.40;0.10;;;12.40;99.90;;;;;;4975158;28;20042;-82
2023/10/04 02:38:23;;;;;;;1.33;0.20;;;12.40;99.90;;;;;;4993175;28;20050;-82
2023/10/04 02:40:53;;;;;;;1.80;0.52;;;12.40;99.90;;;;;;4971736;28;20034;-83
2023/10/04 02:43:22;;;;;;;0.57;0.20;;;12.40;99.90;;;;;;4988470;28;20042;-83
2023/10/04 02:45:50;;;;;;;0.43;0.10;;;12.30;99.90;;;;;;4975948;28;20125;-83
2023/10/04 02:48:16;;;;;;;0.50;0.28;;;12.30;99.90;;;;;;4982204;28;20038;-83
2023/10/04 02:50:43;;;;;;;0.22;0.13;;;12.20;99.90;;;;;;4983282;28;20030;-83
2023/10/04 02:53:12;;;;;;;2.60;0.43;;;12.20;99.90;;;;;;4989530;28;20117;-83
2023/10/04 02:55:38;;;;;;;2.00;0.45;;;12.10;99.90;;;;;;4986881;28;20607;-83
2023/10/04 02:58:06;;;;;;;1.05;0.15;;;12.10;99.90;;;;;;4966328;28;20121;-83
2023/10/04 03:00:33;;;;;;;2.20;0.03;;;12.10;99.90;;;;;;4968136;28;20086;-83
2023/10/04 03:02:59;;;;;;;2.30;0.40;;;12.10;99.90;;;;;;4986079;28;20164;-83
2023/10/04 03:05:28;;;;;;;3.50;0.20;;;12.10;99.90;;;;;;4983772;28;20096;-83
2023/10/04 03:07:54;;;;;;;0.68;0.22;;;12.10;99.90;;;;;;4983884;28;20126;-83
2023/10/04 03:10:33;;;;;;;0.73;0.35;;;12.10;99.90;;;;;;4975558;28;20686;-83
2023/10/04 03:13:01;;;;;;;0.80;0.00;;;12.00;99.90;;;;;;4971270;28;20042;-83
2023/10/04 03:15:28;;;;;;;1.13;0.15;;;12.00;99.90;;;;;;4966182;28;20042;-83
2023/10/04 03:18:00;;;;;;;0.52;0.10;;;11.90;99.90;;;;;;4970032;28;20061;-83
2023/10/04 03:20:29;;;;;;;2.80;0.30;;;11.90;99.90;;;;;;4969515;28;20034;-83
2023/10/04 03:22:55;;;;;;;1.70;0.30;;;11.80;99.90;;;;;;4993934;28;20109;-83
2023/10/04 03:25:26;;;;;;;0.40;0.15;;;11.70;99.90;;;;;;4984253;28;20038;-83
2023/10/04 03:27:52;;;;;;;0.47;0.08;;;11.70;99.90;;;;;;4979450;28;20039;-83
2023/10/04 03:30:18;;;;;;;0.55;0.10;;;11.60;99.90;;;;;;4971945;28;20038;-83
2023/10/04 03:32:50;;;;;;;2.28;0.30;;;11.60;99.90;;;;;;4969822;28;20106;-83
2023/10/04 03:35:15;;;;;;;1.25;0.17;;;11.60;99.90;;;;;;4989876;28;20045;-83
2023/10/04 03:37:58;;;;;;;1.42;0.40;;;11.60;99.90;;;;;;4975590;28;20049;-83
2023/10/04 03:40:37;;;;;;;10.80;0.57;;;11.50;99.90;;;;;;4988768;28;20049;-84
2023/10/04 03:43:06;;;;;;;0.40;0.10;;;11.50;99.90;;;;;;4992716;28;20042;-83
2023/10/04 03:45:40;;;;;;;2.17;0.45;;;11.50;99.90;;;;;;4970709;28;20081;-83
2023/10/04 03:48:13;;;;;;;0.43;0.20;;;11.50;99.90;;;;;;4968974;28;20069;-83
2023/10/04 03:50:40;;;;;;;0.68;0.10;;;11.40;99.90;;;;;;4987159;28;20363;-83
2023/10/04 03:53:07;;;;;;;0.90;0.00;;;11.40;99.90;;;;;;4985488;28;20042;-83
2023/10/04 03:55:33;;;;;;;0.20;0.10;;;11.40;99.90;;;;;;4984045;28;20050;-84
2023/10/04 03:57:59;;;;;;;0.88;0.10;;;11.30;99.90;;;;;;4967117;28;20042;-84
2023/10/04 04:00:30;;;;;;;0.93;0.10;;;11.30;99.90;;;;;;4989602;28;20045;-84
2023/10/04 04:02:56;;;;;;;0.45;0.20;;;11.30;99.90;;;;;;4967899;28;20053;-84
2023/10/04 04:05:22;;;;;;;0.28;0.10;;;11.20;99.90;;;;;;4992082;28;20054;-83
2023/10/04 04:07:48;;;;;;;0.22;0.05;;;11.20;99.90;;;;;;4989070;28;20039;-84
2023/10/04 04:10:16;;;;;;;1.55;0.30;;;11.20;99.90;;;;;;4969506;28;20149;-83
2023/10/04 04:12:42;;;;;;;2.70;0.32;;;11.20;99.90;;;;;;4987596;28;20042;-83
2023/10/04 04:15:09;;;;;;;4.07;0.30;;;11.20;99.90;;;;;;4979456;28;20087;-83
2023/10/04 04:17:37;;;;;;;1.23;0.28;;;11.20;99.90;;;;;;4992245;28;20060;-83
2023/10/04 04:20:23;;;;;;;0.15;0.08;;;11.20;99.90;;;;;;4985982;28;20042;-83
2023/10/04 04:22:53;;;;;;;0.20;0.10;;;11.20;99.90;;;;;;4988662;28;20046;-83
2023/10/04 04:25:20;;;;;;;2.75;0.38;;;11.20;99.90;;;;;;4985476;28;20043;-83
2023/10/04 04:27:47;;;;;;;0.65;0.35;;;11.30;99.90;;;;;;4989954;28;20497;-84
2023/10/04 04:30:18;;;;;;;9.45;0.35;;;11.30;99.90;;;;;;4972795;28;20036;-83
2023/10/04 04:32:48;;;;;;;1.55;0.30;;;11.30;99.90;;;;;;4970697;28;20077;-83
2023/10/04 04:35:30;;;;;;;3.00;0.43;;;11.40;99.90;;;;;;4989408;28;20115;-83
2023/10/04 04:37:57;;;;;;;1.30;0.20;;;11.50;99.90;;;;;;4972885;28;20501;-83
2023/10/04 04:40:30;;;;;;;1.58;0.22;;;11.50;99.90;;;;;;4989767;28;20069;-83
2023/10/04 04:43:17;;;;;;;4.22;0.70;;;11.50;99.90;;;;;;4988318;28;20081;-84
2023/10/04 04:45:49;;;;;;;0.85;0.30;;;11.60;99.90;;;;;;4990213;28;20108;-83
2023/10/04 04:48:17;;;;;;;3.17;0.57;;;11.60;99.90;;;;;;4985935;28;20135;-83
2023/10/04 04:50:42;;;;;;;5.60;0.20;;;11.70;99.90;;;;;;4985345;28;20114;-83
2023/10/04 04:53:17;;;;;;;0.82;0.45;;;11.70;99.90;;;;;;4985790;28;20512;-83
2023/10/04 04:55:42;;;;;;;;;;;11.80;99.90;;;;;;4988750;28;20132;-83
2023/10/04 04:58:08;;;;;;;0.73;0.30;;;11.80;99.90;;;;;;4987130;28;19979;-83
2023/10/04 05:00:35;;;;;;;2.20;0.50;;;11.80;99.90;;;;;;4988708;28;20042;-83
2023/10/04 05:03:03;;;;;;;0.68;0.30;;;11.80;99.90;;;;;;4988876;28;20050;-83
2023/10/04 05:05:29;;;;;;;1.20;0.22;;;11.80;99.90;;;;;;4985724;28;20049;-83
2023/10/04 05:07:55;;;;;;;0.65;0.10;;;11.70;99.90;;;;;;4972503;28;20092;-83
2023/10/04 05:10:29;;;;;;;0.43;0.20;;;11.60;99.90;;;;;;4967968;28;20073;-83
2023/10/04 05:12:55;;;;;;;1.07;0.33;;;11.60;99.90;;;;;;4985411;28;20529;-83
2023/10/04 05:15:42;;;;;;;1.02;0.35;;;11.60;99.90;;;;;;4983101;28;20289;-83
2023/10/04 05:18:14;;;;;;;1.02;0.30;;;11.50;99.90;;;;;;4989830;28;20043;-83
2023/10/04 05:20:41;;;;;;;1.52;0.15;;;11.50;99.90;;;;;;4963586;28;20038;-83
2023/10/04 05:23:09;;;;;;;0.15;0.00;;;11.40;99.90;;;;;;4984102;28;20390;-83
2023/10/04 05:25:36;;;;;;;2.40;0.30;;;11.40;99.90;;;;;;4998683;28;20535;-83
2023/10/04 05:28:06;;;;;;;2.70;0.50;;;11.40;99.90;;;;;;4999589;28;20046;-83
2023/10/04 05:30:33;;;;;;;2.63;0.30;;;11.40;99.90;;;;;;4995626;28;20097;-83
2023/10/04 05:32:58;;;;;;;0.52;0.10;;;11.40;99.90;;;;;;4966960;28;20043;-83
2023/10/04 05:35:26;;;;;;;0.38;0.15;;;11.40;99.90;;;;;;4987384;28;20502;-84
2023/10/04 05:37:52;;;;;;;0.32;0.10;;;11.40;99.90;;;;;;4973835;28;20043;-83
2023/10/04 05:40:25;;;;;;;0.47;0.10;;;11.30;99.90;;;;;;4973119;28;20046;-83
2023/10/04 05:42:53;;;;;;;1.65;0.20;;;11.40;99.90;;;;;;4979758;28;20415;-83
2023/10/04 05:45:22;;;;;;;0.68;0.28;;;11.40;99.90;;;;;;4965953;28;20109;-83
2023/10/04 05:47:50;;;;;;;3.20;0.43;;;11.40;99.90;;;;;;4965588;28;20406;-84
2023/10/04 05:50:23;;;;;;;3.13;0.45;;;11.50;99.90;;;;;;4978318;28;20046;-84
2023/10/04 05:52:50;;;;;;;1.27;0.47;;;11.50;99.90;;;;;;4980804;28;20374;-83
2023/10/04 05:55:20;;;;;;;0.47;0.10;;;11.60;99.90;;;;;;4983074;28;20046;-83
2023/10/04 05:57:47;;;;;;;0.93;0.40;;;11.60;99.90;;;;;;4984053;28;20054;-84
2023/10/04 06:00:33;;;;;;;0.43;0.10;;;11.70;99.90;;;;;;4983588;28;20042;-83
2023/10/04 06:03:11;;;;;;;4.20;0.20;;;11.70;99.90;;;;;;4980211;28;20049;-83
2023/10/04 06:05:38;;;;;;;1.58;0.10;;;11.70;99.90;;;;;;4978219;28;20054;-83
2023/10/04 06:08:15;;;;;;;1.10;0.15;;;11.80;99.90;;;;;;4977096;28;20046;-83
2023/10/04 06:10:44;;;;;;;0.15;0.10;;;11.80;99.90;;;;;;4986219;28;20057;-84
2023/10/04 06:13:13;;;;;;;0.65;0.10;;;11.90;99.90;;;;;;4967053;28;20051;-83
2023/10/04 06:15:41;;;;;;;1.35;0.28;;;11.90;99.90;;;;;;4978903;28;20155;-83
2023/10/04 06:18:07;;;;;;;1.55;0.38;;;11.90;99.90;;;;;;4985799;28;20390;-83
2023/10/04 06:20:36;;;;;;;1.08;0.22;;;11.90;99.90;;;;;;4966944;28;20046;-83
2023/10/04 06:23:07;;;;;;;3.60;0.47;;;12.00;99.90;;;;;;4996705;28;20046;-84
2023/10/04 06:25:35;;;;;;;0.95;0.20;;;12.00;99.90;;;;;;4972483;28;20042;-83
2023/10/04 06:28:05;;;;;;;5.28;0.70;;;12.00;99.90;;;;;;4985158;28;20030;-83
2023/10/04 06:30:33;;;;;;;0.95;0.20;;;12.00;99.90;;;;;;4977641;28;20437;-83
2023/10/04 06:33:04;;;;;;;0.00;0.00;;;12.00;99.90;;;;;;4981670;28;20487;-83
2023/10/04 06:35:32;;;;;;;1.58;0.20;;;12.10;99.90;;;;;;4962626;28;20446;-83
2023/10/04 06:38:08;;;;;;;0.15;0.10;;;12.10;99.90;;;;;;4980200;28;20042;-83
2023/10/04 06:40:35;;;;;;;0.43;0.35;;;12.10;99.90;;;;;;4979186;28;20109;-83
2023/10/04 06:43:06;;;;;;;0.50;0.10;;;12.20;99.90;;;;;;4966070;28;20602;-83
2023/10/04 06:45:34;;;;;;;0.10;0.10;;;12.20;99.90;;;;;;4981904;28;20054;-83
2023/10/04 06:48:01;;;;;;;0.80;0.28;;;12.30;99.90;;;;;;4965086;28;20030;-83
2023/10/04 06:50:32;;;;;;;0.52;0.20;;;12.30;99.90;;;;;;4961902;28;20042;-83
2023/10/04 06:52:59;;;;;;;4.18;0.40;;;12.30;99.90;;;;;;4966939;28;20073;-83
2023/10/04 06:55:25;;;;;;;2.15;0.32;;;12.30;99.90;;;;;;4977803;28;20053;-83
2023/10/04 06:57:52;;;;;;;1.55;0.55;;;12.30;99.90;;;;;;4973375;28;20137;-82
2023/10/04 07:00:21;;;;;;;1.65;0.43;;;12.30;99.90;;;;;;4983593;28;20158;-81
2023/10/04 07:02:59;;;;;;;1.60;0.50;;;12.40;99.90;;;;;;4981479;28;20047;-81
2023/10/04 07:05:26;;;;;;;0.20;0.10;;;12.40;99.90;;;;;;5002595;28;20053;-81
2023/10/04 07:07:53;;;;;;;0.68;0.32;;;12.40;99.90;;;;;;4995247;28;20042;-82
2023/10/04 07:10:24;;;;;;;1.67;0.22;;;12.50;99.90;;;;;;4994241;28;20058;-81
2023/10/04 07:12:57;;;;;;;0.20;0.10;;;12.50;99.90;;;;;;4980799;28;20105;-81
2023/10/04 07:15:44;;;;;;;2.08;0.40;;;12.60;99.90;;;;;;5000089;28;20046;-81
2023/10/04 07:18:11;;;;;;;1.48;0.50;;;12.60;99.90;;;;;;4991670;28;20094;-82
2023/10/04 07:20:38;;;;;;;3.35;0.38;;;12.70;99.90;;;;;;4977325;28;20080;-81
2023/10/04 07:23:07;;;;;;;8.48;0.68;;;12.80;99.90;;;;;;4977604;28;20045;-81
2023/10/04 07:25:35;;;;;;;0.90;0.30;;;12.80;99.90;;;;;;4990982;28;20058;-81
2023/10/04 07:28:03;;;;;;;0.63;0.22;;;12.80;99.90;;;;;;4987169;28;20035;-81
2023/10/04 07:30:35;;;;;;;0.93;0.15;;;12.80;99.90;;;;;;4980200;28;20049;-81
2023/10/04 07:33:02;;;;;;;0.22;0.10;;;12.90;99.90;;;;;;4997445;28;20045;-81
2023/10/04 07:35:29;;;;;;;0.88;0.35;;;13.20;99.90;;;;;;4982067;28;20034;-82
2023/10/04 07:37:56;;;;;;;0.43;0.30;;;13.60;99.90;;;;;;4995541;28;20078;-82
2023/10/04 07:40:24;;;;;;;2.10;0.52;;;14.00;99.90;;;;;;4995475;28;20124;-81
2023/10/04 07:42:54;;;;;;;2.22;0.50;;;14.50;99.90;;;;;;4999243;28;20074;-82
2023/10/04 07:45:25;;;;;;;2.75;0.35;;;14.90;99.90;;;;;;4983575;28;20046;-81
2023/10/04 07:47:52;;;;;;;5.88;0.50;;;14.80;99.90;;;;;;4995737;28;20632;-81
2023/10/04 07:50:25;;;;;;;2.00;0.38;;;14.70;99.90;;;;;;4997382;28;20105;-81
2023/10/04 07:52:56;;;;;;;2.35;0.50;;;15.00;99.90;;;;;;5012745;28;20107;-81
2023/10/04 07:55:24;;;;;;;8.05;1.05;;;15.70;99.90;;;;;;5018440;28;20113;-81
2023/10/04 07:57:58;;;;;;;1.90;0.30;;;16.20;99.90;;;;;;4989502;28;20098;-81
2023/10/04 08:00:24;;;;;;;2.40;0.47;;;16.80;99.90;;;;;;4996725;28;20038;-81
2023/10/04 08:02:51;;;;;;;2.00;0.52;;;17.40;99.90;;;;;;4999857;28;20095;-80
2023/10/04 08:05:23;;;;;;;3.22;0.30;;;17.90;99.90;;;;;;5000493;28;20042;-81
2023/10/04 08:07:53;;;;;;;0.75;0.40;;;18.50;99.90;;;;;;4997975;28;20039;-81
2023/10/04 08:10:25;;;;;;;3.05;0.57;;;18.90;99.90;;;;;;4994415;28;20061;-81
2023/10/04 08:13:01;;;;;;;2.28;0.50;;;19.20;99.90;;;;;;4991953;28;20049;-81
2023/10/04 08:15:30;;;;;;;4.45;0.90;;;19.50;99.90;;;;;;4993252;28;20421;-81
2023/10/04 08:17:58;;;;;;;0.85;0.20;;;19.60;99.90;;;;;;4988554;28;20554;-81
2023/10/04 08:20:32;;;;;;;1.40;0.20;;;19.80;99.90;;;;;;4993177;28;20076;-81
2023/10/04 08:23:08;;;;;;;0.80;0.10;;;20.00;99.90;;;;;;4979778;28;20053;-80
2023/10/04 08:25:35;;;;;;;6.03;0.70;;;20.30;99.90;;;;;;4983050;28;20047;-81
2023/10/04 08:28:01;;;;;;;1.30;0.43;;;20.50;99.90;;;;;;4995253;28;20138;-81
2023/10/04 08:30:27;;;;;;;2.28;0.50;;;20.60;99.90;;;;;;4981237;28;20039;-81
2023/10/04 08:32:53;;;;;;;1.13;0.40;;;20.80;99.90;;;;;;4994622;28;20098;-81
2023/10/04 08:35:24;;;;;;;2.80;0.50;;;21.00;99.90;;;;;;4988212;28;20042;-82
2023/10/04 08:37:57;;;;;;;2.03;0.47;;;21.20;99.90;;;;;;4989409;28;20042;-82
2023/10/04 08:40:27;;;;;;;3.13;0.70;;;21.50;99.90;;;;;;4983868;28;20056;-81
2023/10/04 08:42:53;;;;;;;1.20;0.55;;;21.70;99.90;;;;;;4982916;28;20044;-81
2023/10/04 08:45:20;;;;;;;1.80;0.30;;;21.90;99.90;;;;;;4983735;28;20118;-80
2023/10/04 08:47:50;;;;;;;2.08;0.60;;;22.00;99.90;;;;;;4979441;28;20042;-81
2023/10/04 08:50:26;;;;;;;1.13;0.50;;;22.20;99.90;;;;;;4993717;28;20043;-82
2023/10/04 08:53:03;;;;;;;1.90;0.45;;;22.20;99.90;;;;;;4976762;28;20053;-83
2023/10/04 08:55:37;;;;;;;0.85;0.30;;;22.20;99.90;;;;;;4989033;28;20507;-82
2023/10/04 08:58:04;;;;;;;2.42;0.43;;;22.20;99.90;;;;;;4994669;28;20042;-84
2023/10/04 09:00:32;;;;;;;1.77;0.60;;;22.30;99.90;;;;;;4990129;28;20089;-82
2023/10/04 09:02:59;;;;;;;3.85;0.30;;;22.50;99.90;;;;;;4990534;28;20042;-83
2023/10/04 09:05:28;;;;;;;3.55;0.50;;;22.60;99.90;;;;;;4976882;28;20079;-81
2023/10/04 09:08:04;;;;;;;1.58;0.30;;;22.80;99.90;;;;;;4989740;28;20409;-80
2023/10/04 09:10:34;;;;;;;0.73;0.28;;;23.00;99.90;;;;;;4990006;28;20074;-80
2023/10/04 09:13:03;;;;;;;1.15;0.50;;;22.90;99.90;;;;;;4988813;28;20108;-80
2023/10/04 09:15:30;;;;;;;2.53;0.40;;;22.60;99.90;;;;;;4990539;28;20109;-83
2023/10/04 09:17:57;;;;;;;2.63;0.52;;;22.40;99.90;;;;;;4992286;28;20125;-84
2023/10/04 09:20:29;;;;;;;0.95;0.43;;;22.30;99.90;;;;;;4989768;28;20053;-84
2023/10/04 09:22:55;;;;;;;3.13;0.38;;;22.40;99.90;;;;;;4978166;28;20042;-82
2023/10/04 09:25:22;;;;;;;2.50;0.30;;;22.40;99.90;;;;;;4978932;28;20102;-83
2023/10/04 09:27:55;;;;;;;3.67;0.60;;;22.50;99.90;;;;;;4995460;28;20046;-83
2023/10/04 09:30:24;;;;;;;1.83;0.17;;;22.80;99.90;;;;;;4993961;28;20522;-83
2023/10/04 09:32:54;;;;;;;0.98;0.20;;;23.00;99.90;;;;;;4993306;28;20027;-82
2023/10/04 09:35:20;;;;;;;2.47;0.40;;;23.20;99.90;;;;;;4989436;28;20122;-84
2023/10/04 09:37:48;;;;;;;3.15;0.40;;;23.40;99.90;;;;;;4993473;28;20041;-83
2023/10/04 09:40:16;;;;;;;1.05;0.30;;;23.50;99.90;;;;;;4992054;28;20538;-84
2023/10/04 09:42:52;;;;;;;4.75;0.95;;;23.60;99.90;;;;;;4996113;28;20080;-84
2023/10/04 09:45:26;;;;;;;2.28;0.28;;;23.40;99.90;;;;;;4978512;28;20042;-84
2023/10/04 09:47:55;;;;;;;2.10;0.43;;;23.40;99.90;;;;;;4996598;28;20038;-83
2023/10/04 09:50:23;;;;;;;1.75;0.55;;;23.20;99.90;;;;;;4980973;28;20039;-83
2023/10/04 09:52:50;;;;;;;1.75;0.60;;;23.10;99.90;;;;;;4991148;28;20076;-82
2023/10/04 09:55:16;;;;;;;2.20;0.28;;;23.10;99.90;;;;;;4998823;28;20134;-83
2023/10/04 09:57:43;;;;;;;3.20;0.60;;;23.00;99.90;;;;;;4980347;28;20517;-82
2023/10/04 10:00:17;;;;;;;2.05;0.35;;;23.00;99.90;;;;;;5001455;28;20047;-82
2023/10/04 10:02:50;;;;;;;;;;;22.60;99.90;;;;;;4996722;28;20042;-82
2023/10/04 10:05:26;;;;;;;2.88;0.40;;;22.30;99.90;;;;;;4991626;28;19925;-83
2023/10/04 10:08:04;;;;;;;3.13;0.60;;;22.30;99.90;;;;;;5012600;28;20435;-82
2023/10/04 10:10:41;;;;;;;2.13;0.30;;;22.40;99.90;;;;;;4978420;28;20061;-83
2023/10/04 10:13:12;;;;;;;1.75;0.52;;;22.50;99.90;;;;;;4980234;28;20102;-82
2023/10/04 10:15:38;;;;;;;1.33;0.50;;;22.40;99.90;;;;;;4994637;28;20054;-82
2023/10/04 10:18:07;;;;;;;2.47;0.55;;;22.20;99.90;;;;;;4995116;28;20072;-83
2023/10/04 10:20:32;;;;;;;4.60;0.73;;;22.00;99.90;;;;;;4982181;28;20045;-82
2023/10/04 10:22:58;;;;;;;1.75;0.35;;;21.60;99.90;;;;;;4985022;28;20042;-82
2023/10/04 10:25:25;;;;;;;2.53;0.50;;;21.10;99.90;;;;;;4999339;28;20070;-83
2023/10/04 10:27:58;;;;;;;2.40;0.25;;;20.70;99.90;;;;;;4999693;28;20077;-83
2023/10/04 10:30:25;;;;;;;2.25;0.63;;;20.20;99.90;;;;;;4999751;28;21114;-83
2023/10/04 10:33:02;;;;;;;3.13;0.50;;;19.80;99.90;;;;;;5000251;28;20081;-82
2023/10/04 10:35:48;;;;;;;3.72;0.40;;;19.70;99.90;;;;;;4984675;28;20039;-84
2023/10/04 10:38:54;;;;;;;1.10;0.32;;;19.60;99.90;;;;;;4993671;28;20169;-84
2023/10/04 10:41:31;;;;;;;3.38;0.70;;;20.00;99.90;;;;;;4994437;28;20058;-84
2023/10/04 10:44:25;;;;;;;3.08;0.28;;;20.20;99.90;;;;;;5002164;28;20109;-83
2023/10/04 10:46:56;;;;;;;3.45;0.73;;;20.20;99.90;;;;;;4990333;28;20034;-83
2023/10/04 10:49:55;;;;;;;3.67;0.52;;;20.10;99.90;;;;;;5001218;28;20067;-83
2023/10/04 10:52:39;;;;;;;1.45;0.43;;;20.00;99.90;;;;;;4999133;28;20091;-87
2023/10/04 10:55:06;;;;;;;;;;;19.80;99.90;;;;;;4983613;28;20053;-86
2023/10/04 10:57:36;;;;;;;2.33;0.60;;;19.60;99.90;;;;;;5002186;28;19960;-85
2023/10/04 11:00:19;;;;;;;2.28;0.40;;;19.30;99.90;;;;;;4996773;28;20030;-85
2023/10/04 11:02:48;;;;;;;2.70;0.77;;;19.10;99.90;;;;;;5000585;28;20109;-85
2023/10/04 11:05:16;;;;;;;2.03;0.35;;;18.80;99.90;;;;;;4982394;28;20042;-84
2023/10/04 11:07:45;;;;;;;2.90;0.63;;;18.60;99.90;;;;;;4990132;28;20042;-86
2023/10/04 11:10:16;;;;;;;2.28;0.63;;;18.30;99.90;;;;;;4990342;28;20100;-85
2023/10/04 11:12:44;;;;;;;2.63;0.60;;;18.20;99.90;;;;;;5008321;28;20045;-84
2023/10/04 11:15:10;;;;;;;4.20;0.95;;;18.10;99.90;;;;;;5011392;28;20033;-86
2023/10/04 11:17:37;;;;;;;3.72;0.60;;;18.00;99.90;;;;;;5013567;28;20049;-84
2023/10/04 11:20:11;;;;;;;2.30;0.65;;;17.90;99.90;;;;;;5004625;28;20066;-84
2023/10/04 11:22:39;;;;;;;3.45;0.73;;;17.90;99.90;;;;;;5003499;28;20037;-85
2023/10/04 11:25:06;;;;;;;1.67;0.60;;;17.90;99.90;;;;;;5005177;28;20038;-85
2023/10/04 11:27:35;;;;;;;1.48;0.40;;;17.90;99.90;;;;;;4994946;28;20061;-85
2023/10/04 11:30:01;;;;;;;1.95;0.63;;;17.80;99.90;;;;;;5002755;28;20054;-85
2023/10/04 11:32:28;;;;;;;7.47;1.02;;;17.90;99.90;;;;;;5007306;28;20034;-85
2023/10/04 11:34:57;;;;;;;1.63;0.43;;;17.90;99.90;;;;;;5004821;28;20057;-84
2023/10/04 11:37:29;;;;;;;1.85;0.38;;;17.90;99.90;;;;;;5007365;28;20077;-85
2023/10/04 11:39:55;;;;;;;1.77;0.40;;;17.90;99.90;;;;;;5004939;28;20061;-85
2023/10/04 11:42:23;;;;;;;1.83;0.60;;;17.80;99.90;;;;;;4990972;28;20025;-85
2023/10/04 11:44:49;;;;;;;3.45;0.70;;;17.80;99.90;;;;;;5011096;28;20161;-86
2023/10/04 11:47:32;;;;;;;1.80;0.52;;;17.90;99.90;;;;;;5004376;28;20057;-85
2023/10/04 11:49:59;;;;;;;3.45;0.52;;;17.80;99.90;;;;;;4997043;28;20052;-85
2023/10/04 11:52:31;;;;;;;3.17;0.63;;;17.80;99.90;;;;;;5002732;28;20038;-84
2023/10/04 11:54:58;;;;;;;0.40;0.20;;;17.80;99.90;;;;;;5010288;28;20062;-85
2023/10/04 11:57:26;;;;;;;2.10;0.38;;;17.80;99.90;;;;;;4992016;28;20054;-85
2023/10/04 11:59:52;;;;;;;3.08;0.57;;;17.70;99.90;;;;;;5012702;28;20049;-84
2023/10/04 12:02:22;;;;;;;3.03;0.57;;;17.60;99.90;;;;;;5009964;28;20046;-84
2023/10/04 12:04:48;;;;;;;2.10;0.73;;;17.60;99.90;;;;;;4996889;28;20073;-84
2023/10/04 12:07:14;;;;;;;2.85;0.60;;;17.60;99.90;;;;;;5006320;28;20031;-85
2023/10/04 12:09:40;;;;;;;3.22;0.43;;;17.60;99.90;;;;;;5000152;28;20034;-84
2023/10/04 12:12:06;;;;;;;0.98;0.43;;;17.50;99.90;;;;;;5002891;28;20094;-85
2023/10/04 12:14:32;;;;;;;2.60;0.52;;;17.50;99.90;;;;;;5004295;23;20058;-69
2023/10/04 12:17:04;;;;;;;5.47;0.47;;;17.50;99.90;;;;;;4995865;28;20053;-69
2023/10/04 12:19:31;;;;;;;1.48;0.63;;;17.50;99.90;;;;;;4991879;28;20534;-70
2023/10/04 12:22:11;;;;;;;1.30;0.55;;;17.40;99.90;;;;;;4998042;28;20069;-70
2023/10/04 12:24:41;;;;;;;3.25;0.70;;;17.50;99.90;;;;;;4996731;28;20045;-70
2023/10/04 12:27:08;;;;;;;3.38;0.70;;;17.50;99.90;;;;;;4995244;28;20038;-70
2023/10/04 12:29:37;;;;;;;6.57;1.30;;;17.50;99.90;;;;;;4985191;28;20056;-70
2023/10/04 12:32:05;;;;;;;2.88;0.47;;;17.50;99.90;;;;;;5001199;28;20324;-69
2023/10/04 12:34:31;;;;;;;1.70;0.32;;;17.60;99.90;;;;;;4983137;28;20046;-69
2023/10/04 12:36:57;;;;;;;2.53;0.70;;;17.60;99.90;;;;;;4999728;28;20495;-70
2023/10/04 12:39:23;;;;;;;1.90;0.50;;;17.60;99.90;;;;;;4995723;28;20520;-69
2023/10/04 12:41:50;;;;;;;4.18;0.90;;;17.50;99.90;;;;;;4996648;28;20046;-69
2023/10/04 12:44:19;;;;;;;0.68;0.30;;;17.50;99.90;;;;;;4995371;28;20498;-69
2023/10/04 12:46:47;;;;;;;1.42;0.47;;;17.30;99.90;;;;;;4984074;28;20055;-69
2023/10/04 12:49:15;;;;;;;1.90;0.52;;;17.20;99.90;;;;;;4993640;28;20128;-70
2023/10/04 12:51:41;;;;;;;2.75;0.60;;;17.20;99.90;;;;;;5000173;28;20048;-69
2023/10/04 12:54:11;;;;;;;2.03;0.57;;;17.30;99.90;;;;;;4997102;28;20037;-70
2023/10/04 12:56:38;;;;;;;2.33;1.15;;;17.50;99.90;;;;;;4992308;28;20054;-69
2023/10/04 12:59:07;;;;;;;1.42;0.43;;;17.70;99.90;;;;;;4995528;28;20053;-69